createdAt,value
2022-12-25T00:00:22.608Z,5.26
2022-12-25T00:04:09.840Z,5.29
2022-12-25T00:07:36.838Z,5.31
2022-12-25T00:11:06.551Z,5.33
2022-12-25T00:14:31.839Z,5.34
2022-12-25T00:17:58.768Z,5.34
2022-12-25T00:21:25.876Z,5.36
2022-12-25T00:24:52.893Z,5.37
2022-12-25T00:28:19.993Z,5.39
2022-12-25T00:31:46.923Z,5.40
2022-12-25T00:35:13.996Z,5.42
2022-12-25T00:38:42.191Z,5.44
2022-12-25T00:42:24.155Z,5.46
2022-12-25T00:45:59.667Z,5.49
2022-12-25T00:49:27.016Z,5.51
2022-12-25T00:52:53.852Z,5.54
2022-12-25T00:56:20.798Z,5.56
2022-12-25T00:59:47.814Z,5.58
2022-12-25T01:03:15.356Z,5.60
2022-12-25T01:06:42.425Z,5.60
2022-12-25T01:10:24.113Z,5.62
2022-12-25T01:13:50.928Z,5.63
2022-12-25T01:17:17.940Z,5.63
2022-12-25T01:20:44.828Z,5.62
2022-12-25T01:24:12.037Z,5.62
2022-12-25T01:27:38.981Z,5.62
2022-12-25T01:31:06.880Z,5.62
2022-12-25T01:34:34.139Z,5.62
2022-12-25T01:38:01.146Z,5.63
2022-12-25T01:41:28.231Z,5.63
2022-12-25T01:45:27.838Z,5.64
2022-12-25T01:48:54.312Z,5.64
2022-12-25T01:52:25.200Z,5.64
2022-12-25T01:55:55.592Z,5.65
2022-12-25T01:59:27.156Z,5.65
2022-12-25T02:02:54.456Z,5.65
2022-12-25T02:06:22.159Z,5.66
2022-12-25T02:09:49.573Z,5.65
2022-12-25T02:13:19.193Z,5.65
2022-12-25T02:16:56.700Z,5.66
2022-12-25T02:20:42.696Z,5.66
2022-12-25T02:24:27.960Z,5.67
2022-12-25T02:28:10.982Z,5.68
2022-12-25T02:31:44.003Z,5.70
2022-12-25T02:35:18.125Z,5.71
2022-12-25T02:39:00.586Z,5.70
2022-12-25T02:43:04.515Z,5.68
2022-12-25T02:46:50.951Z,5.67
2022-12-25T02:50:37.058Z,5.68
2022-12-25T02:54:26.749Z,5.69
2022-12-25T02:58:13.199Z,5.71
2022-12-25T03:02:00.274Z,5.73
2022-12-25T03:05:47.370Z,5.73
2022-12-25T03:09:36.952Z,5.73
2022-12-25T03:13:09.694Z,5.75
2022-12-25T03:16:53.099Z,5.75
2022-12-25T03:20:38.323Z,5.75
2022-12-25T03:24:23.036Z,5.76
2022-12-25T03:27:54.098Z,5.77
2022-12-25T03:31:27.947Z,5.78
2022-12-25T03:35:21.676Z,5.80
2022-12-25T03:39:26.271Z,5.81
2022-12-25T03:43:18.819Z,5.81
2022-12-25T03:47:09.515Z,5.81
2022-12-25T03:50:58.033Z,5.82
2022-12-25T03:54:49.927Z,5.83
2022-12-25T03:58:46.007Z,5.85
2022-12-25T04:02:30.872Z,5.86
2022-12-25T04:06:11.650Z,5.87
2022-12-25T04:09:56.337Z,5.87
2022-12-25T04:13:41.019Z,5.88
2022-12-25T04:17:25.642Z,5.88
2022-12-25T04:21:10.046Z,5.89
2022-12-25T04:24:54.775Z,5.90
2022-12-25T04:28:39.635Z,5.91
2022-12-25T04:32:24.493Z,5.92
2022-12-25T04:36:10.365Z,5.93
2022-12-25T04:39:37.237Z,5.94
2022-12-25T04:43:04.171Z,5.95
2022-12-25T04:46:31.175Z,5.96
2022-12-25T04:49:58.155Z,5.97
2022-12-25T04:53:25.252Z,5.97
2022-12-25T04:56:52.354Z,5.98
2022-12-25T05:00:20.977Z,5.98
2022-12-25T05:03:47.988Z,5.98
2022-12-25T05:07:15.144Z,5.98
2022-12-25T05:10:43.605Z,5.98
2022-12-25T05:14:10.447Z,5.98
2022-12-25T05:17:38.141Z,5.99
2022-12-25T05:21:05.687Z,6.00
2022-12-25T05:24:32.764Z,6.01
2022-12-25T05:27:59.919Z,6.02
2022-12-25T05:31:26.983Z,6.02
2022-12-25T05:34:54.207Z,6.02
2022-12-25T05:38:21.062Z,6.02
2022-12-25T05:41:48.105Z,6.02
2022-12-25T05:45:15.442Z,6.02
2022-12-25T05:48:42.504Z,6.02
2022-12-25T05:52:09.485Z,6.02
2022-12-25T05:55:38.856Z,6.02
2022-12-25T05:59:05.815Z,6.03
2022-12-25T06:02:32.823Z,6.03
2022-12-25T06:06:00.038Z,6.04
2022-12-25T06:09:27.067Z,6.04
2022-12-25T06:12:54.544Z,6.04
2022-12-25T06:16:21.688Z,6.04
2022-12-25T06:19:48.723Z,6.04
2022-12-25T06:23:15.606Z,6.05
2022-12-25T06:26:42.571Z,6.06
2022-12-25T06:30:11.934Z,6.05
2022-12-25T06:33:39.054Z,6.05
2022-12-25T06:37:06.136Z,6.06
2022-12-25T06:40:32.985Z,6.06
2022-12-25T06:44:02.430Z,6.06
2022-12-25T06:47:29.414Z,6.06
2022-12-25T06:50:56.551Z,6.06
2022-12-25T06:54:23.547Z,6.07
2022-12-25T06:57:50.386Z,6.07
2022-12-25T07:01:20.636Z,6.07
2022-12-25T07:04:48.752Z,6.06
2022-12-25T07:08:15.641Z,6.04
2022-12-25T07:11:42.492Z,6.03
2022-12-25T07:15:11.326Z,6.02
2022-12-25T07:18:38.175Z,6.01
2022-12-25T07:22:04.981Z,6.00
2022-12-25T07:25:37.069Z,6.01
2022-12-25T07:29:04.463Z,6.04
2022-12-25T07:32:33.913Z,6.06
2022-12-25T07:36:01.021Z,6.08
2022-12-25T07:39:27.953Z,6.10
2022-12-25T07:42:55.167Z,6.11
2022-12-25T07:46:23.505Z,6.13
2022-12-25T07:49:50.669Z,6.15
2022-12-25T07:53:17.515Z,6.18
2022-12-25T07:56:44.466Z,6.21
2022-12-25T08:00:13.612Z,6.25
2022-12-25T08:03:40.947Z,6.31
2022-12-25T08:07:08.050Z,6.33
2022-12-25T08:10:34.881Z,6.37
2022-12-25T08:14:01.791Z,6.38
2022-12-25T08:17:29.031Z,6.40
2022-12-25T08:20:55.861Z,6.44
2022-12-25T08:24:23.352Z,6.46
2022-12-25T08:27:50.201Z,6.50
2022-12-25T08:31:22.892Z,6.52
2022-12-25T08:34:50.489Z,6.57
2022-12-25T08:38:17.651Z,6.62
2022-12-25T08:41:44.456Z,6.66
2022-12-25T08:45:13.419Z,6.67
2022-12-25T08:48:42.757Z,6.67
2022-12-25T08:52:09.937Z,6.64
2022-12-25T08:55:36.842Z,6.67
2022-12-25T08:59:04.063Z,6.71
2022-12-25T09:02:32.175Z,6.75
2022-12-25T09:06:02.912Z,6.77
2022-12-25T09:09:30.541Z,6.78
2022-12-25T09:12:57.391Z,6.76
2022-12-25T09:16:25.374Z,6.75
2022-12-25T09:19:52.167Z,6.77
2022-12-25T09:23:19.005Z,6.80
2022-12-25T09:26:45.942Z,6.82
2022-12-25T09:30:14.175Z,6.87
2022-12-25T09:33:41.453Z,6.91
2022-12-25T09:37:08.383Z,6.93
2022-12-25T09:40:36.085Z,6.94
2022-12-25T09:44:07.282Z,6.97
2022-12-25T09:47:38.351Z,6.98
2022-12-25T09:51:10.046Z,6.96
2022-12-25T09:54:45.942Z,6.98
2022-12-25T09:58:14.473Z,7.01
2022-12-25T10:01:51.671Z,7.04
2022-12-25T10:05:45.493Z,7.04
2022-12-25T10:09:27.661Z,7.02
2022-12-25T10:13:03.535Z,6.99
2022-12-25T10:16:43.146Z,6.99
2022-12-25T10:20:19.595Z,6.99
2022-12-25T10:23:51.170Z,7.01
2022-12-25T10:27:21.481Z,7.04
2022-12-25T10:30:51.003Z,7.04
2022-12-25T10:34:21.195Z,7.07
2022-12-25T10:37:55.185Z,7.09
2022-12-25T10:41:48.418Z,7.14
2022-12-25T10:45:15.273Z,7.14
2022-12-25T10:48:45.757Z,7.13
2022-12-25T10:52:23.850Z,7.15
2022-12-25T10:56:02.304Z,7.19
2022-12-25T10:59:31.086Z,7.21
2022-12-25T11:02:58.943Z,7.23
2022-12-25T11:06:29.289Z,7.22
2022-12-25T11:10:04.600Z,7.25
2022-12-25T11:13:34.544Z,7.24
2022-12-25T11:17:11.427Z,7.21
2022-12-25T11:20:45.407Z,7.21
2022-12-25T11:24:22.287Z,7.24
2022-12-25T11:28:00.700Z,7.21
2022-12-25T11:31:37.345Z,7.18
2022-12-25T11:35:11.579Z,7.19
2022-12-25T11:38:38.408Z,7.22
2022-12-25T11:42:14.486Z,7.24
2022-12-25T11:45:47.943Z,7.24
2022-12-25T11:49:19.217Z,7.30
2022-12-25T11:52:48.625Z,7.30
2022-12-25T11:56:18.398Z,7.28
2022-12-25T11:59:53.172Z,7.28
2022-12-25T12:03:26.993Z,7.28
2022-12-25T12:06:58.233Z,7.27
2022-12-25T12:10:34.015Z,7.26
2022-12-25T12:14:08.574Z,7.26
2022-12-25T12:17:35.775Z,7.22
2022-12-25T12:21:06.447Z,7.18
2022-12-25T12:24:38.813Z,7.15
2022-12-25T12:28:06.085Z,7.12
2022-12-25T12:31:43.797Z,7.08
2022-12-25T12:35:18.294Z,7.04
2022-12-25T12:38:47.185Z,7.01
2022-12-25T12:42:21.142Z,6.97
2022-12-25T12:45:55.711Z,6.94
2022-12-25T12:49:26.402Z,6.87
2022-12-25T12:52:53.282Z,6.81
2022-12-25T12:56:21.495Z,6.74
2022-12-25T12:59:48.761Z,6.69
2022-12-25T13:03:41.128Z,6.62
2022-12-25T13:07:21.716Z,6.54
2022-12-25T13:10:52.581Z,6.49
2022-12-25T13:14:22.106Z,6.47
2022-12-25T13:17:50.192Z,6.47
2022-12-25T13:21:22.033Z,6.46
2022-12-25T13:24:58.628Z,6.43
2022-12-25T13:28:30.768Z,6.39
2022-12-25T13:31:58.430Z,6.37
2022-12-25T13:35:26.293Z,6.35
2022-12-25T13:38:56.265Z,6.34
2022-12-25T13:42:26.606Z,6.31
2022-12-25T13:45:57.796Z,6.23
2022-12-25T13:49:25.821Z,6.14
2022-12-25T13:52:53.555Z,6.08
2022-12-25T13:56:20.553Z,6.03
2022-12-25T13:59:47.927Z,5.99
2022-12-25T14:03:23.074Z,5.97
2022-12-25T14:06:51.491Z,5.91
2022-12-25T14:10:18.462Z,5.86
2022-12-25T14:13:48.171Z,5.81
2022-12-25T14:17:13.715Z,5.75
2022-12-25T14:20:43.762Z,5.71
2022-12-25T14:24:16.184Z,5.67
2022-12-25T14:27:49.460Z,5.64
2022-12-25T14:31:17.490Z,5.60
2022-12-25T14:34:46.571Z,5.54
2022-12-25T14:38:21.795Z,5.49
2022-12-25T14:41:54.709Z,5.43
2022-12-25T14:45:31.686Z,5.37
2022-12-25T14:49:07.181Z,5.31
2022-12-25T14:52:40.488Z,5.26
2022-12-25T14:56:09.515Z,5.23
2022-12-25T14:59:36.401Z,5.18
2022-12-25T15:03:04.527Z,5.11
2022-12-25T15:06:33.443Z,5.07
2022-12-25T15:10:36.620Z,5.03
2022-12-25T15:13:47.537Z,5.00
2022-12-25T15:17:24.560Z,4.97
2022-12-25T15:20:53.417Z,4.92
2022-12-25T15:24:20.345Z,4.88
2022-12-25T15:27:47.247Z,4.85
2022-12-25T15:31:21.848Z,4.83
2022-12-25T15:34:50.159Z,4.82
2022-12-25T15:38:17.403Z,4.83
2022-12-25T15:42:01.908Z,4.84
2022-12-25T15:45:31.469Z,4.85
2022-12-25T15:48:58.741Z,4.85
2022-12-25T15:52:25.778Z,4.87
2022-12-25T15:55:54.182Z,4.88
2022-12-25T15:59:22.412Z,4.89
2022-12-25T16:02:50.341Z,4.88
2022-12-25T16:06:19.543Z,4.88
2022-12-25T16:09:47.155Z,4.88
2022-12-25T16:13:14.301Z,4.87
2022-12-25T16:16:41.993Z,4.87
2022-12-25T16:20:11.012Z,4.88
2022-12-25T16:23:38.021Z,4.88
2022-12-25T16:27:05.655Z,4.90
2022-12-25T16:30:32.938Z,4.91
2022-12-25T16:33:59.840Z,4.92
2022-12-25T16:37:27.640Z,4.93
2022-12-25T16:40:58.613Z,4.94
2022-12-25T16:44:25.841Z,4.93
2022-12-25T16:47:52.780Z,4.93
2022-12-25T16:51:21.718Z,4.94
2022-12-25T16:54:49.425Z,4.95
2022-12-25T16:58:16.316Z,4.96
2022-12-25T17:01:43.937Z,4.97
2022-12-25T17:05:12.344Z,4.98
2022-12-25T17:08:39.334Z,5.00
2022-12-25T17:12:07.119Z,5.00
2022-12-25T17:15:33.928Z,5.01
2022-12-25T17:19:04.130Z,5.01
2022-12-25T17:22:31.208Z,5.01
2022-12-25T17:26:00.917Z,5.02
2022-12-25T17:29:28.036Z,5.03
2022-12-25T17:32:55.299Z,5.02
2022-12-25T17:36:24.385Z,5.02
2022-12-25T17:39:51.362Z,5.03
2022-12-25T17:43:20.978Z,5.05
2022-12-25T17:46:48.528Z,5.06
2022-12-25T17:50:15.651Z,5.08
2022-12-25T17:53:44.521Z,5.09
2022-12-25T17:57:11.550Z,5.10
2022-12-25T18:00:38.737Z,5.11
2022-12-25T18:04:06.758Z,5.11
2022-12-25T18:07:33.770Z,5.11
2022-12-25T18:11:05.177Z,5.12
2022-12-25T18:14:32.175Z,5.11
2022-12-25T18:17:59.278Z,5.11
2022-12-25T18:21:26.847Z,5.11
2022-12-25T18:24:53.782Z,5.10
2022-12-25T18:28:21.138Z,5.10
2022-12-25T18:31:48.652Z,5.09
2022-12-25T18:35:15.835Z,5.08
2022-12-25T18:38:43.184Z,5.08
2022-12-25T18:42:42.320Z,5.08
2022-12-25T18:46:10.151Z,5.08
2022-12-25T18:49:37.490Z,5.08
2022-12-25T18:53:05.641Z,5.07
2022-12-25T18:56:32.565Z,5.08
2022-12-25T18:59:59.819Z,5.08
2022-12-25T19:03:26.944Z,5.09
2022-12-25T19:06:54.585Z,5.10
2022-12-25T19:10:21.641Z,5.11
2022-12-25T19:13:49.132Z,5.11
2022-12-25T19:17:16.557Z,5.12
2022-12-25T19:20:43.767Z,5.12
2022-12-25T19:24:10.951Z,5.12
2022-12-25T19:27:37.892Z,5.12
2022-12-25T19:31:07.548Z,5.13
2022-12-25T19:34:33.020Z,5.14
2022-12-25T19:38:00.177Z,5.14
2022-12-25T19:41:28.566Z,5.15
2022-12-25T19:44:55.917Z,5.16
2022-12-25T19:48:22.784Z,5.16
2022-12-25T19:51:49.895Z,5.17
2022-12-25T19:55:20.155Z,5.18
2022-12-25T19:58:47.377Z,5.18
2022-12-25T20:02:14.373Z,5.19
2022-12-25T20:05:45.248Z,5.20
2022-12-25T20:09:17.917Z,5.20
2022-12-25T20:12:47.648Z,5.22
2022-12-25T20:16:15.159Z,5.23
2022-12-25T20:19:42.207Z,5.25
2022-12-25T20:23:09.573Z,5.26
2022-12-25T20:26:36.778Z,5.28
2022-12-25T20:30:03.660Z,5.28
2022-12-25T20:33:30.835Z,5.29
2022-12-25T20:36:57.698Z,5.29
2022-12-25T20:40:24.712Z,5.31
2022-12-25T20:43:52.151Z,5.31
2022-12-25T20:47:19.468Z,5.34
2022-12-25T20:50:46.544Z,5.36
2022-12-25T20:54:14.906Z,5.37
2022-12-25T20:57:41.795Z,5.39
2022-12-25T21:01:10.755Z,5.40
2022-12-25T21:04:37.803Z,5.41
2022-12-25T21:08:04.625Z,5.43
2022-12-25T21:11:31.740Z,5.44
2022-12-25T21:14:58.733Z,5.46
2022-12-25T21:18:27.881Z,5.47
2022-12-25T21:21:54.933Z,5.49
2022-12-25T21:25:21.817Z,5.50
2022-12-25T21:28:49.866Z,5.51
2022-12-25T21:32:34.695Z,5.50
2022-12-25T21:36:09.074Z,5.51
2022-12-25T21:39:36.077Z,5.52
2022-12-25T21:43:03.085Z,5.53
2022-12-25T21:46:30.451Z,5.54
2022-12-25T21:50:15.533Z,5.54
2022-12-25T21:53:42.431Z,5.55
2022-12-25T21:57:10.206Z,5.55
2022-12-25T22:00:37.285Z,5.54
2022-12-25T22:04:07.161Z,5.54
2022-12-25T22:07:34.184Z,5.52
2022-12-25T22:11:03.866Z,5.50
2022-12-25T22:14:51.804Z,5.48
2022-12-25T22:18:38.106Z,5.46
2022-12-25T22:22:05.108Z,5.44
2022-12-25T22:25:32.217Z,5.43
2022-12-25T22:28:59.281Z,5.43
2022-12-25T22:32:26.299Z,5.44
2022-12-25T22:36:01.437Z,5.45
2022-12-25T22:39:29.231Z,5.47
2022-12-25T22:42:57.736Z,5.50
2022-12-25T22:46:24.867Z,5.53
2022-12-25T22:49:51.958Z,5.56
2022-12-25T22:53:18.990Z,5.59
2022-12-25T22:56:48.076Z,5.62
2022-12-25T23:00:16.265Z,5.64
2022-12-25T23:03:43.181Z,5.66
2022-12-25T23:07:10.984Z,5.67
2022-12-25T23:10:37.965Z,5.67
2022-12-25T23:14:22.855Z,5.68
2022-12-25T23:18:07.785Z,5.71
2022-12-25T23:21:52.393Z,5.73
2022-12-25T23:25:36.867Z,5.75
2022-12-25T23:29:21.822Z,5.77
2022-12-25T23:32:48.857Z,5.78
2022-12-25T23:36:15.871Z,5.79
2022-12-25T23:39:42.786Z,5.80
2022-12-25T23:43:09.953Z,5.80
2022-12-25T23:46:37.195Z,5.82
2022-12-25T23:50:04.549Z,5.83
2022-12-25T23:53:31.658Z,5.85
2022-12-25T23:56:59.357Z,5.89
